createdAt,value
2023-05-23T00:01:09.747Z,82.20
2023-05-23T00:03:38.206Z,82.10
2023-05-23T00:06:08.268Z,82.60
2023-05-23T00:08:36.120Z,83.06
2023-05-23T00:11:03.849Z,83.02
2023-05-23T00:13:33.578Z,83.16
2023-05-23T00:16:02.461Z,83.69
2023-05-23T00:18:30.619Z,83.58
2023-05-23T00:20:59.251Z,83.89
2023-05-23T00:23:29.770Z,83.91
2023-05-23T00:25:58.475Z,84.56
2023-05-23T00:28:27.198Z,84.75
2023-05-23T00:30:54.909Z,84.80
2023-05-23T00:33:23.758Z,85.51
2023-05-23T00:35:51.627Z,85.91
2023-05-23T00:38:19.433Z,86.10
2023-05-23T00:40:49.288Z,86.36
2023-05-23T00:43:16.996Z,86.79
2023-05-23T00:45:44.704Z,87.03
2023-05-23T00:48:12.808Z,87.25
2023-05-23T00:50:40.552Z,87.25
2023-05-23T00:53:08.305Z,87.55
2023-05-23T00:55:36.197Z,87.93
2023-05-23T00:58:05.648Z,88.12
2023-05-23T01:00:34.113Z,87.95
2023-05-23T01:03:01.947Z,87.82
2023-05-23T01:05:30.110Z,88.04
2023-05-23T01:07:58.058Z,88.08
2023-05-23T01:10:28.133Z,88.38
2023-05-23T01:13:03.513Z,88.02
2023-05-23T01:15:38.637Z,88.22
2023-05-23T01:18:09.653Z,87.81
2023-05-23T01:20:41.544Z,88.04
2023-05-23T01:23:34.669Z,87.80
2023-05-23T01:26:13.234Z,88.70
2023-05-23T01:28:45.439Z,88.40
2023-05-23T01:31:13.308Z,88.74
2023-05-23T01:33:42.173Z,88.33
2023-05-23T01:36:10.302Z,88.36
2023-05-23T01:38:38.025Z,88.66
2023-05-23T01:41:05.816Z,88.59
2023-05-23T01:43:33.689Z,88.19
2023-05-23T01:46:03.275Z,88.37
2023-05-23T01:48:32.357Z,89.04
2023-05-23T01:51:00.375Z,88.67
2023-05-23T01:53:28.776Z,88.90
2023-05-23T01:55:56.953Z,89.54
2023-05-23T01:58:24.688Z,90.13
2023-05-23T02:00:52.446Z,90.61
2023-05-23T02:03:21.660Z,90.88
2023-05-23T02:05:49.460Z,91.66
2023-05-23T02:08:17.246Z,91.62
2023-05-23T02:10:45.010Z,92.11
2023-05-23T02:13:12.819Z,92.37
2023-05-23T02:15:41.021Z,92.50
2023-05-23T02:18:08.924Z,92.91
2023-05-23T02:20:38.131Z,93.72
2023-05-23T02:23:06.444Z,93.30
2023-05-23T02:25:34.179Z,93.27
2023-05-23T02:28:02.050Z,93.41
2023-05-23T02:30:29.770Z,93.39
2023-05-23T02:32:58.292Z,93.24
2023-05-23T02:35:26.102Z,93.96
2023-05-23T02:37:55.212Z,94.15
2023-05-23T02:40:22.964Z,93.64
2023-05-23T02:42:51.743Z,93.92
2023-05-23T02:45:19.551Z,94.03
2023-05-23T02:47:47.289Z,94.15
2023-05-23T02:50:15.063Z,94.01
2023-05-23T02:52:44.161Z,93.91
2023-05-23T02:55:13.358Z,94.14
2023-05-23T02:57:41.403Z,94.22
2023-05-23T03:00:11.785Z,94.19
2023-05-23T03:02:39.605Z,94.01
2023-05-23T03:05:08.365Z,94.09
2023-05-23T03:07:36.679Z,93.89
2023-05-23T03:10:04.542Z,93.88
2023-05-23T03:12:33.630Z,94.10
2023-05-23T03:15:01.346Z,93.88
2023-05-23T03:17:29.054Z,94.21
2023-05-23T03:19:56.832Z,94.14
2023-05-23T03:22:24.523Z,93.88
2023-05-23T03:24:52.211Z,94.10
2023-05-23T03:27:19.905Z,94.27
2023-05-23T03:29:49.044Z,94.52
2023-05-23T03:32:16.743Z,94.56
2023-05-23T03:34:44.510Z,94.67
2023-05-23T03:37:12.328Z,94.98
2023-05-23T03:39:40.092Z,94.84
2023-05-23T03:42:08.469Z,95.01
2023-05-23T03:44:36.230Z,95.60
2023-05-23T03:47:05.882Z,95.84
2023-05-23T03:49:33.549Z,94.87
2023-05-23T03:52:01.232Z,95.12
2023-05-23T03:54:28.935Z,95.19
2023-05-23T03:56:56.884Z,94.82
2023-05-23T03:59:24.745Z,94.76
2023-05-23T04:01:52.434Z,94.23
2023-05-23T04:04:22.341Z,94.53
2023-05-23T04:06:50.007Z,94.06
2023-05-23T04:09:17.850Z,94.85
2023-05-23T04:11:45.623Z,95.06
2023-05-23T04:14:14.157Z,94.86
2023-05-23T04:16:42.655Z,94.13
2023-05-23T04:19:10.498Z,93.88
2023-05-23T04:21:39.600Z,93.74
2023-05-23T04:24:08.199Z,93.42
2023-05-23T04:26:36.591Z,93.33
2023-05-23T04:29:06.144Z,93.00
2023-05-23T04:31:35.314Z,93.03
2023-05-23T04:34:03.826Z,93.08
2023-05-23T04:36:31.569Z,92.64
2023-05-23T04:39:00.639Z,92.63
2023-05-23T04:41:28.433Z,92.62
2023-05-23T04:43:58.145Z,92.15
2023-05-23T04:46:26.794Z,91.49
2023-05-23T04:48:55.073Z,91.30
2023-05-23T04:51:22.918Z,91.22
2023-05-23T04:53:51.330Z,91.54
2023-05-23T04:56:22.346Z,90.97
2023-05-23T04:58:50.034Z,90.62
2023-05-23T05:01:17.832Z,90.39
2023-05-23T05:03:45.639Z,90.23
2023-05-23T05:06:13.419Z,90.40
2023-05-23T05:08:41.783Z,89.74
2023-05-23T05:11:10.670Z,89.42
2023-05-23T05:13:39.785Z,89.61
2023-05-23T05:16:07.924Z,89.13
2023-05-23T05:18:36.549Z,89.02
2023-05-23T05:21:04.565Z,88.89
2023-05-23T05:23:33.375Z,89.29
2023-05-23T05:26:01.609Z,88.94
2023-05-23T05:28:29.316Z,89.16
2023-05-23T05:30:58.959Z,88.17
2023-05-23T05:33:28.376Z,88.11
2023-05-23T05:35:56.230Z,88.79
2023-05-23T05:38:23.923Z,88.48
2023-05-23T05:40:51.626Z,88.22
2023-05-23T05:43:19.356Z,88.22
2023-05-23T05:45:47.064Z,87.99
2023-05-23T05:48:16.584Z,88.79
2023-05-23T05:50:45.353Z,88.74
2023-05-23T05:53:13.595Z,88.62
2023-05-23T05:55:41.312Z,88.80
2023-05-23T05:58:08.980Z,88.74
2023-05-23T06:00:42.131Z,88.92
2023-05-23T06:03:10.250Z,88.83
2023-05-23T06:05:40.046Z,88.52
2023-05-23T06:08:07.907Z,88.19
2023-05-23T06:10:35.654Z,87.97
2023-05-23T06:13:03.369Z,88.11
2023-05-23T06:15:31.189Z,87.89
2023-05-23T06:17:59.039Z,87.14
2023-05-23T06:20:26.804Z,86.58
2023-05-23T06:22:55.919Z,86.36
2023-05-23T06:25:23.634Z,86.60
2023-05-23T06:27:51.309Z,86.56
2023-05-23T06:30:19.112Z,86.74
2023-05-23T06:32:46.969Z,87.12
2023-05-23T06:35:14.850Z,87.04
2023-05-23T06:37:45.607Z,86.70
2023-05-23T06:40:14.800Z,87.14
2023-05-23T06:42:42.599Z,87.23
2023-05-23T06:45:12.453Z,86.95
2023-05-23T06:47:43.828Z,86.77
2023-05-23T06:50:12.246Z,86.59
2023-05-23T06:52:39.959Z,86.27
2023-05-23T06:55:08.522Z,86.62
2023-05-23T06:57:37.655Z,86.63
2023-05-23T07:00:06.653Z,86.33
2023-05-23T07:02:34.400Z,85.70
2023-05-23T07:05:02.367Z,86.01
2023-05-23T07:07:30.244Z,85.10
2023-05-23T07:09:58.044Z,84.52
2023-05-23T07:12:25.831Z,84.22
2023-05-23T07:14:54.995Z,84.64
2023-05-23T07:17:22.828Z,84.34
2023-05-23T07:19:50.738Z,84.11
2023-05-23T07:22:18.533Z,84.75
2023-05-23T07:24:46.311Z,84.09
2023-05-23T07:27:14.287Z,84.05
2023-05-23T07:29:42.198Z,84.22
2023-05-23T07:32:11.376Z,84.28
2023-05-23T07:34:39.081Z,83.70
2023-05-23T07:37:07.210Z,83.69
2023-05-23T07:39:35.819Z,83.66
2023-05-23T07:42:03.563Z,83.36
2023-05-23T07:44:31.269Z,83.13
2023-05-23T07:46:59.092Z,83.16
2023-05-23T07:49:28.302Z,82.82
2023-05-23T07:51:56.005Z,82.55
2023-05-23T07:54:23.796Z,82.54
2023-05-23T07:56:51.588Z,83.07
2023-05-23T07:59:19.337Z,82.18
2023-05-23T08:01:50.376Z,81.33
2023-05-23T08:04:18.664Z,80.86
2023-05-23T08:07:04.137Z,80.79
2023-05-23T08:09:32.714Z,79.26
2023-05-23T08:12:00.954Z,77.15
2023-05-23T08:14:42.279Z,77.13
2023-05-23T08:17:16.992Z,76.61
2023-05-23T08:19:45.009Z,75.47
2023-05-23T08:22:14.151Z,75.65
2023-05-23T08:24:41.987Z,75.33
2023-05-23T08:27:09.721Z,75.06
2023-05-23T08:29:38.432Z,74.81
2023-05-23T08:32:06.534Z,74.83
2023-05-23T08:34:34.426Z,74.97
2023-05-23T08:37:02.203Z,74.37
2023-05-23T08:39:31.365Z,74.05
2023-05-23T08:41:59.139Z,74.41
2023-05-23T08:44:26.928Z,74.48
2023-05-23T08:46:55.326Z,74.24
2023-05-23T08:49:23.907Z,73.86
2023-05-23T08:51:53.387Z,73.59
2023-05-23T08:54:22.376Z,73.35
2023-05-23T08:56:52.260Z,73.66
2023-05-23T08:59:20.930Z,72.98
2023-05-23T09:01:49.751Z,72.57
2023-05-23T09:04:17.498Z,72.18
2023-05-23T09:06:45.262Z,70.97
2023-05-23T09:09:12.997Z,70.79
2023-05-23T09:11:40.829Z,70.94
2023-05-23T09:14:09.934Z,70.49
2023-05-23T09:16:37.806Z,69.99
2023-05-23T09:19:12.041Z,70.16
2023-05-23T09:21:44.322Z,70.09
2023-05-23T09:24:12.153Z,68.43
2023-05-23T09:26:40.093Z,68.57
2023-05-23T09:29:09.262Z,67.99
2023-05-23T09:31:37.034Z,67.48
2023-05-23T09:34:04.986Z,67.64
2023-05-23T09:36:35.283Z,66.39
2023-05-23T09:39:05.716Z,66.64
2023-05-23T09:41:34.686Z,66.35
2023-05-23T09:44:06.838Z,65.20
2023-05-23T09:46:37.297Z,65.92
2023-05-23T09:49:16.283Z,64.44
2023-05-23T09:51:44.142Z,64.71
2023-05-23T09:54:11.900Z,65.47
2023-05-23T09:56:43.720Z,65.71
2023-05-23T09:59:14.100Z,65.16
2023-05-23T10:01:44.608Z,64.05
2023-05-23T10:04:13.015Z,62.62
2023-05-23T10:06:43.947Z,63.52
2023-05-23T10:09:15.923Z,62.61
2023-05-23T10:12:17.020Z,60.84
2023-05-23T10:14:47.017Z,60.54
2023-05-23T10:17:20.593Z,61.54
2023-05-23T10:19:53.338Z,60.84
2023-05-23T10:22:21.950Z,61.00
2023-05-23T10:24:49.705Z,61.21
2023-05-23T10:27:17.357Z,62.20
2023-05-23T10:29:45.849Z,62.99
2023-05-23T10:32:15.029Z,60.31
2023-05-23T10:34:51.255Z,61.74
2023-05-23T10:37:22.687Z,60.31
2023-05-23T10:39:58.684Z,57.69
2023-05-23T10:42:36.622Z,57.48
2023-05-23T10:45:17.790Z,57.71
2023-05-23T10:47:45.751Z,57.14
2023-05-23T10:50:17.134Z,57.66
2023-05-23T10:52:45.190Z,57.27
2023-05-23T10:55:17.879Z,57.05
2023-05-23T10:57:46.052Z,56.65
2023-05-23T11:00:16.315Z,57.38
2023-05-23T11:02:49.176Z,57.22
2023-05-23T11:05:23.162Z,56.92
2023-05-23T11:08:10.866Z,56.41
2023-05-23T11:11:00.031Z,57.42
2023-05-23T11:13:28.093Z,56.67
2023-05-23T11:15:55.815Z,56.50
2023-05-23T11:18:24.933Z,56.19
2023-05-23T11:20:55.611Z,54.41
2023-05-23T11:23:24.109Z,55.82
2023-05-23T11:25:53.873Z,55.70
2023-05-23T11:28:21.854Z,55.53
2023-05-23T11:30:50.406Z,54.91
2023-05-23T11:33:18.838Z,54.59
2023-05-23T11:35:47.856Z,54.48
2023-05-23T11:38:17.472Z,53.79
2023-05-23T11:40:46.849Z,53.86
2023-05-23T11:43:16.620Z,53.27
2023-05-23T11:45:46.856Z,53.83
2023-05-23T11:48:16.997Z,53.13
2023-05-23T11:50:46.957Z,52.86
2023-05-23T11:53:18.616Z,52.94
2023-05-23T11:55:50.503Z,52.82
2023-05-23T11:58:18.285Z,52.61
2023-05-23T12:00:46.305Z,52.41
2023-05-23T12:03:14.122Z,52.57
2023-05-23T12:05:44.519Z,52.29
2023-05-23T12:08:13.770Z,51.35
2023-05-23T12:10:52.549Z,50.63
2023-05-23T12:13:20.667Z,50.93
2023-05-23T12:15:49.786Z,52.03
2023-05-23T12:18:21.131Z,51.13
2023-05-23T12:21:13.506Z,50.92
2023-05-23T12:23:41.592Z,50.20
2023-05-23T12:26:10.181Z,49.06
2023-05-23T13:48:23.341Z,55.85
2023-05-23T13:50:51.199Z,54.56
2023-05-23T13:53:18.996Z,54.32
2023-05-23T13:55:46.848Z,52.07
2023-05-23T13:58:14.692Z,51.82
2023-05-23T14:00:43.183Z,52.10
2023-05-23T14:03:11.228Z,52.44
2023-05-23T14:05:40.575Z,52.96
2023-05-23T14:08:08.352Z,53.22
2023-05-23T14:10:36.254Z,52.59
2023-05-23T14:13:04.070Z,51.22
2023-05-23T14:15:34.396Z,51.15
2023-05-23T14:18:02.542Z,50.57
2023-05-23T14:20:30.625Z,49.72
2023-05-23T14:22:59.888Z,49.21
2023-05-23T14:25:27.743Z,49.50
2023-05-23T14:27:55.539Z,48.57
2023-05-23T14:30:23.278Z,46.47
2023-05-23T14:32:51.099Z,47.10
2023-05-23T14:35:18.906Z,46.75
2023-05-23T14:37:47.455Z,45.29
2023-05-23T14:40:17.276Z,45.92
2023-05-23T14:42:45.030Z,44.27
2023-05-23T14:45:13.048Z,44.70
2023-05-23T14:47:40.783Z,44.66
2023-05-23T14:50:09.649Z,44.83
2023-05-23T14:52:37.510Z,46.08
2023-05-23T14:55:06.142Z,45.78
2023-05-23T14:57:35.247Z,44.69
2023-05-23T15:00:05.316Z,46.33
2023-05-23T15:54:44.366Z,48.88
2023-05-23T15:57:12.121Z,47.82
2023-05-23T15:59:40.410Z,48.61
2023-05-23T16:02:10.218Z,46.57
2023-05-23T16:04:38.989Z,44.98
2023-05-23T16:07:06.868Z,43.67
2023-05-23T16:09:34.706Z,43.72
2023-05-23T16:12:03.816Z,43.48
2023-05-23T16:14:32.032Z,43.08
2023-05-23T16:17:02.849Z,42.90
2023-05-23T16:19:30.740Z,43.44
2023-05-23T16:21:58.896Z,42.60
2023-05-23T16:24:28.173Z,43.08
2023-05-23T16:26:56.149Z,42.66
2023-05-23T16:29:25.397Z,42.21
2023-05-23T16:31:53.211Z,42.67
2023-05-23T16:34:21.153Z,41.90
2023-05-23T16:36:48.859Z,40.99
2023-05-23T16:39:16.890Z,41.51
2023-05-23T16:41:44.622Z,41.75
2023-05-23T16:44:12.393Z,42.01
2023-05-23T16:46:41.693Z,42.43
2023-05-23T16:49:09.549Z,41.73
2023-05-23T16:51:37.249Z,41.84
2023-05-23T16:54:05.104Z,41.99
2023-05-23T16:56:32.798Z,41.54
2023-05-23T16:59:00.801Z,42.27
2023-05-23T17:01:30.425Z,42.04
2023-05-23T17:03:59.608Z,41.71
2023-05-23T17:06:27.341Z,41.74
2023-05-23T17:08:55.285Z,41.85
2023-05-23T17:11:23.247Z,41.22
2023-05-23T17:13:50.929Z,41.87
2023-05-23T17:16:20.252Z,41.70
2023-05-23T17:18:48.409Z,41.40
2023-05-23T17:21:17.559Z,41.49
2023-05-23T17:23:46.005Z,42.12
2023-05-23T17:26:13.931Z,42.65
2023-05-23T17:28:42.060Z,42.48
2023-05-23T17:31:10.678Z,42.87
2023-05-23T17:33:38.804Z,43.08
2023-05-23T17:36:06.755Z,43.34
2023-05-23T17:38:35.890Z,42.71
2023-05-23T17:41:03.796Z,43.36
2023-05-23T17:43:31.591Z,42.74
2023-05-23T17:45:59.474Z,42.43
2023-05-23T17:48:38.719Z,42.34
2023-05-23T17:51:13.225Z,41.90
2023-05-23T17:53:42.454Z,42.37
2023-05-23T17:56:10.381Z,42.30
2023-05-23T17:58:40.263Z,43.32
2023-05-23T18:01:11.580Z,43.13
2023-05-23T18:03:39.339Z,42.95
2023-05-23T18:06:07.367Z,46.25
2023-05-23T18:08:35.043Z,47.66
2023-05-23T18:11:04.203Z,44.27
2023-05-23T18:13:31.988Z,43.56
2023-05-23T18:15:59.736Z,44.29
2023-05-23T18:19:42.802Z,42.97
2023-05-23T18:22:10.917Z,43.82
2023-05-23T18:24:38.610Z,43.32
2023-05-23T18:27:06.772Z,44.00
2023-05-23T18:29:34.395Z,43.48
2023-05-23T18:32:02.228Z,43.77
2023-05-23T18:34:30.019Z,44.18
2023-05-23T18:36:59.170Z,43.99
2023-05-23T18:39:27.378Z,44.37
2023-05-23T18:41:55.117Z,43.81
2023-05-23T18:44:23.626Z,44.25
2023-05-23T18:46:51.417Z,44.41
2023-05-23T18:49:19.265Z,44.31
2023-05-23T18:51:47.648Z,44.56
2023-05-23T18:54:17.126Z,44.81
2023-05-23T18:56:44.883Z,44.79
2023-05-23T18:59:14.523Z,44.84
2023-05-23T19:01:42.263Z,44.90
2023-05-23T19:04:10.235Z,45.02
2023-05-23T19:06:38.100Z,45.28
2023-05-23T19:09:09.579Z,45.32
2023-05-23T19:11:38.839Z,45.04
2023-05-23T19:14:06.555Z,45.39
2023-05-23T19:16:34.461Z,45.42
2023-05-23T19:19:02.344Z,45.66
2023-05-23T19:21:32.045Z,45.77
2023-05-23T19:23:59.844Z,46.44
2023-05-23T19:26:30.075Z,45.63
2023-05-23T19:28:59.294Z,45.95
2023-05-23T19:31:27.166Z,46.35
2023-05-23T19:33:54.872Z,46.27
2023-05-23T19:36:22.755Z,46.81
2023-05-23T19:38:53.727Z,46.61
2023-05-23T19:41:22.388Z,46.96
2023-05-23T19:43:51.149Z,46.89
2023-05-23T19:46:20.294Z,47.47
2023-05-23T19:48:48.774Z,47.32
2023-05-23T19:51:16.518Z,47.78
2023-05-23T19:53:44.363Z,47.61
2023-05-23T19:56:12.530Z,47.45
2023-05-23T19:58:40.282Z,47.36
2023-05-23T20:01:08.161Z,47.57
2023-05-23T20:03:37.635Z,47.50
2023-05-23T20:06:05.923Z,47.70
2023-05-23T20:08:33.640Z,48.45
2023-05-23T20:11:01.442Z,48.72
2023-05-23T20:13:29.162Z,48.41
2023-05-23T20:15:56.948Z,48.59
2023-05-23T20:18:24.869Z,48.69
2023-05-23T20:20:54.350Z,49.00
2023-05-23T20:23:22.835Z,49.12
2023-05-23T20:25:51.682Z,49.36
2023-05-23T20:28:19.434Z,50.05
2023-05-23T20:30:47.321Z,49.89
2023-05-23T20:33:15.794Z,50.05
2023-05-23T20:35:44.360Z,50.79
2023-05-23T20:38:13.669Z,50.81
2023-05-23T20:40:42.013Z,50.55
2023-05-23T20:43:10.390Z,50.40
2023-05-23T20:45:38.071Z,50.28
2023-05-23T20:48:06.112Z,50.89
2023-05-23T20:50:35.625Z,50.83
2023-05-23T20:53:03.630Z,51.01
2023-05-23T20:55:34.925Z,50.66
2023-05-23T20:58:02.651Z,51.24
2023-05-23T21:00:30.491Z,51.49
2023-05-23T21:02:58.458Z,51.39
2023-05-23T21:05:26.440Z,51.72
2023-05-23T21:07:54.227Z,51.24
2023-05-23T21:10:22.278Z,51.74
2023-05-23T21:12:51.654Z,51.86
2023-05-23T21:15:19.847Z,52.08
2023-05-23T21:17:47.570Z,51.43
2023-05-23T21:20:16.167Z,51.57
2023-05-23T21:22:43.980Z,51.57
2023-05-23T21:25:12.109Z,51.88
2023-05-23T21:27:39.867Z,52.01
2023-05-23T21:30:10.589Z,52.02
2023-05-23T21:32:38.422Z,52.90
2023-05-23T21:35:07.189Z,52.64
2023-05-23T21:37:35.005Z,52.40
2023-05-23T21:40:02.844Z,52.62
2023-05-23T21:42:30.978Z,52.48
2023-05-23T21:44:58.792Z,53.09
2023-05-23T21:47:28.002Z,53.07
2023-05-23T21:49:55.986Z,54.16
2023-05-23T21:52:23.742Z,54.08
2023-05-23T21:54:51.749Z,53.91
2023-05-23T21:57:19.528Z,53.85
2023-05-23T21:59:47.256Z,54.39
2023-05-23T22:02:15.189Z,54.43
2023-05-23T22:04:44.845Z,54.71
2023-05-23T22:07:12.641Z,54.99
2023-05-23T22:09:40.632Z,54.93
2023-05-23T22:12:08.651Z,54.55
2023-05-23T22:14:36.452Z,54.67
2023-05-23T22:17:04.431Z,54.86
2023-05-23T22:19:32.250Z,55.29
2023-05-23T22:22:01.377Z,55.04
2023-05-23T22:24:29.243Z,55.23
2023-05-23T22:26:58.356Z,55.56
2023-05-23T22:29:26.301Z,55.58
2023-05-23T22:31:54.064Z,55.43
2023-05-23T22:34:21.823Z,55.95
2023-05-23T22:36:49.602Z,56.14
2023-05-23T22:39:18.825Z,56.40
2023-05-23T22:41:46.691Z,56.51
2023-05-23T22:44:14.414Z,56.51
2023-05-23T22:46:43.391Z,56.88
2023-05-23T22:49:11.304Z,57.16
2023-05-23T22:51:39.084Z,57.14
2023-05-23T22:54:06.919Z,57.16
2023-05-23T22:56:36.012Z,57.02
2023-05-23T22:59:03.718Z,57.78
2023-05-23T23:01:31.572Z,57.61
2023-05-23T23:03:59.392Z,57.59
2023-05-23T23:06:27.097Z,57.44
2023-05-23T23:08:54.833Z,57.67
2023-05-23T23:11:22.569Z,57.63
2023-05-23T23:13:51.618Z,58.00
2023-05-23T23:16:21.124Z,57.96
2023-05-23T23:18:49.061Z,58.46
2023-05-23T23:21:16.749Z,58.26
2023-05-23T23:23:44.525Z,58.41
2023-05-23T23:26:12.281Z,58.82
2023-05-23T23:28:39.968Z,58.94
2023-05-23T23:31:09.086Z,59.00
2023-05-23T23:33:36.790Z,59.16
2023-05-23T23:36:04.977Z,59.29
2023-05-23T23:38:33.075Z,59.54
2023-05-23T23:41:00.789Z,59.90
2023-05-23T23:43:28.550Z,59.97
2023-05-23T23:45:56.326Z,59.98
2023-05-23T23:48:25.446Z,60.60
2023-05-23T23:50:53.150Z,60.53
2023-05-23T23:53:21.873Z,60.88
2023-05-23T23:55:49.787Z,60.82
2023-05-23T23:58:17.806Z,60.86
